Time;durP1;ratioP1;P1;durP2;ratioP2;P2;SDS_P1;SDS_P2;PMS_P1;PMS_P2;Temp;Humidity;BMP_temperature;BMP_pressure;BME280_temperature;BME280_humidity;BME280_pressure;Samples;Min_cycle;Max_cycle;Signal;HPM_P1;HPM_P2
2021/05/04 00:02:19;;;;;;;1999.90;999.90;;;11.00;99.90;;;;;;4998788;28;20054;-94
2021/05/04 00:04:46;;;;;;;1999.90;999.90;;;10.90;99.90;;;;;;4998731;28;20061;-94
2021/05/04 00:07:15;;;;;;;1999.90;999.90;;;10.90;99.90;;;;;;5004493;28;20034;-96
2021/05/04 00:09:55;;;;;;;1999.90;999.90;;;10.90;99.90;;;;;;5013732;28;20061;-96
2021/05/04 00:12:25;;;;;;;1999.90;999.90;;;10.80;99.90;;;;;;5012837;28;20158;-96
2021/05/04 00:15:07;;;;;;;1999.90;999.90;;;10.80;99.90;;;;;;5012586;28;20058;-96
2021/05/04 00:17:47;;;;;;;1999.90;999.90;;;10.60;99.90;;;;;;5009328;28;20077;-96
2021/05/04 00:20:15;;;;;;;1999.90;999.90;;;10.60;99.90;;;;;;5009523;28;20081;-95
2021/05/04 00:22:47;;;;;;;1999.90;999.90;;;10.50;99.90;;;;;;5008059;28;20077;-96
2021/05/04 00:25:15;;;;;;;1999.90;999.90;;;10.50;99.90;;;;;;5004710;28;20073;-96
2021/05/04 00:27:42;;;;;;;1999.90;999.90;;;10.40;99.90;;;;;;5004137;28;20481;-96
2021/05/04 00:30:12;;;;;;;1999.90;999.90;;;10.40;99.90;;;;;;5001408;28;20062;-96
2021/05/04 00:32:40;;;;;;;1999.90;999.90;;;10.30;99.90;;;;;;5001381;28;20058;-96
2021/05/04 00:35:09;;;;;;;1999.90;999.90;;;10.30;99.90;;;;;;5000125;28;20057;-96
2021/05/04 00:37:36;;;;;;;1999.90;999.90;;;10.20;99.90;;;;;;4998919;28;20097;-96
2021/05/04 00:40:04;;;;;;;1999.90;999.90;;;10.10;99.90;;;;;;4998474;28;20058;-95
2021/05/04 00:42:32;;;;;;;1999.90;999.90;;;10.10;99.90;;;;;;4998175;28;20145;-96
2021/05/04 00:44:59;;;;;;;1999.90;999.90;;;10.10;99.90;;;;;;4999180;28;20060;-96
2021/05/04 00:47:27;;;;;;;1999.90;999.90;;;10.10;99.90;;;;;;4999143;28;20077;-95
2021/05/04 00:49:55;;;;;;;1999.90;999.90;;;10.00;99.90;;;;;;4998006;28;20058;-95
2021/05/04 00:52:22;;;;;;;1999.90;999.90;;;9.90;99.90;;;;;;4998532;28;20112;-95
2021/05/04 00:54:50;;;;;;;1999.90;999.90;;;9.90;99.90;;;;;;4998197;28;20082;-95
2021/05/04 00:57:20;;;;;;;1999.90;999.90;;;9.90;99.90;;;;;;4998161;28;20096;-95
2021/05/04 00:59:49;;;;;;;1999.90;999.90;;;9.80;99.90;;;;;;4997954;28;20059;-96
2021/05/04 01:02:17;;;;;;;1999.90;999.90;;;9.70;99.90;;;;;;4999316;28;20061;-96
2021/05/04 01:04:45;;;;;;;1999.90;999.90;;;9.80;99.90;;;;;;5000368;28;20495;-96
2021/05/04 01:07:14;;;;;;;1999.90;999.90;;;9.70;99.90;;;;;;4998921;28;20050;-96
2021/05/04 01:09:42;;;;;;;1999.90;999.90;;;9.70;99.90;;;;;;5000446;28;20153;-95
2021/05/04 01:12:15;;;;;;;1999.90;999.90;;;9.70;99.90;;;;;;5000740;28;20058;-96
2021/05/04 01:14:45;;;;;;;1999.90;999.90;;;9.70;99.90;;;;;;5000387;28;20058;-96
2021/05/04 01:17:20;;;;;;;1999.90;999.90;;;9.70;99.90;;;;;;5005081;28;20050;-96
2021/05/04 01:19:48;;;;;;;1999.90;999.90;;;9.60;99.90;;;;;;5004982;28;20054;-95
2021/05/04 01:22:20;;;;;;;1999.90;999.90;;;9.50;99.90;;;;;;5006681;28;20061;-96
2021/05/04 01:24:48;;;;;;;1999.90;999.90;;;9.50;99.90;;;;;;5001317;28;20069;-96
2021/05/04 01:27:18;;;;;;;1999.90;999.90;;;9.50;99.90;;;;;;4999963;28;20050;-95
2021/05/04 01:29:52;;;;;;;1999.90;999.90;;;9.50;99.90;;;;;;5000686;28;20066;-95
2021/05/04 01:32:20;;;;;;;1999.90;999.90;;;9.50;99.90;;;;;;4998338;28;20382;-95
2021/05/04 01:34:47;;;;;;;1999.90;999.90;;;9.50;99.90;;;;;;4998013;28;20073;-96
2021/05/04 01:37:14;;;;;;;1999.90;999.90;;;9.50;99.90;;;;;;4996649;28;20096;-95
2021/05/04 01:39:45;;;;;;;1999.90;999.90;;;9.50;99.90;;;;;;4996868;28;20054;-96
2021/05/04 01:42:18;;;;;;;1999.90;999.90;;;9.40;99.90;;;;;;4997279;28;20055;-96
2021/05/04 01:44:46;;;;;;;1999.90;999.90;;;9.40;99.90;;;;;;4997168;28;20113;-96
2021/05/04 01:47:14;;;;;;;1999.90;999.90;;;9.40;99.90;;;;;;4997653;28;20046;-95
2021/05/04 01:49:42;;;;;;;1999.90;999.90;;;9.30;99.90;;;;;;4997248;28;20105;-96
2021/05/04 01:52:11;;;;;;;1999.90;999.90;;;9.30;99.90;;;;;;4997359;28;20054;-95
2021/05/04 01:54:39;;;;;;;1999.90;999.90;;;9.30;99.90;;;;;;4997826;28;20125;-96
2021/05/04 01:57:07;;;;;;;1999.90;999.90;;;9.30;99.90;;;;;;4997597;28;20468;-95
2021/05/04 01:59:35;;;;;;;1999.90;999.90;;;9.30;99.90;;;;;;4997728;28;20452;-96
2021/05/04 02:02:03;;;;;;;1999.90;999.90;;;9.30;99.90;;;;;;4997562;28;20436;-95
2021/05/04 02:04:31;;;;;;;1999.90;999.90;;;9.30;99.90;;;;;;4998064;28;20058;-94
2021/05/04 02:07:02;;;;;;;1999.90;999.90;;;9.20;99.90;;;;;;4997410;28;20057;-96
2021/05/04 02:09:29;;;;;;;1999.90;999.90;;;9.30;99.90;;;;;;4998668;28;20054;-96
2021/05/04 02:11:57;;;;;;;1999.90;999.90;;;9.20;99.90;;;;;;4997512;28;20081;-95
2021/05/04 02:14:25;;;;;;;1999.90;999.90;;;9.30;99.90;;;;;;4997106;28;20556;-96
2021/05/04 02:16:53;;;;;;;1999.90;999.90;;;9.30;99.90;;;;;;4997243;28;20492;-96
2021/05/04 02:19:20;;;;;;;1999.90;999.90;;;9.20;99.90;;;;;;4998312;28;20065;-96
2021/05/04 02:21:47;;;;;;;1999.90;999.90;;;9.20;99.90;;;;;;4998013;28;20057;-96
2021/05/04 02:24:15;;;;;;;1999.90;999.90;;;9.20;99.90;;;;;;4998565;28;20050;-95
2021/05/04 02:26:42;;;;;;;1999.90;999.90;;;9.20;99.90;;;;;;4997042;28;20050;-95
2021/05/04 02:29:09;;;;;;;1999.90;999.90;;;9.20;99.90;;;;;;4996251;28;20058;-96
2021/05/04 02:31:38;;;;;;;1999.90;999.90;;;9.20;99.90;;;;;;4996468;28;20061;-96
2021/05/04 02:34:05;;;;;;;1999.90;999.90;;;9.20;99.90;;;;;;4997656;28;20050;-96
2021/05/04 02:36:32;;;;;;;1999.90;999.90;;;9.20;99.90;;;;;;4996182;28;20405;-96
2021/05/04 02:39:00;;;;;;;1999.90;999.90;;;9.30;99.90;;;;;;4996588;28;20062;-95
2021/05/04 02:41:27;;;;;;;1999.90;999.90;;;9.20;99.90;;;;;;4996314;28;20058;-96
2021/05/04 02:43:55;;;;;;;1999.90;999.90;;;9.20;99.90;;;;;;4996574;28;20054;-95
2021/05/04 02:46:22;;;;;;;1999.90;999.90;;;9.20;99.90;;;;;;4996694;28;20469;-95
2021/05/04 02:48:50;;;;;;;1999.90;999.90;;;9.20;99.90;;;;;;4996215;28;20153;-95
2021/05/04 02:51:18;;;;;;;1999.90;999.90;;;9.20;99.90;;;;;;4996751;28;20076;-96
2021/05/04 02:53:45;;;;;;;1999.90;999.90;;;9.10;99.90;;;;;;4998670;28;20062;-95
2021/05/04 02:56:12;;;;;;;1999.90;999.90;;;9.10;99.90;;;;;;5000265;28;20046;-96
2021/05/04 02:58:40;;;;;;;1999.90;999.90;;;9.10;99.90;;;;;;4996770;28;20109;-95
2021/05/04 03:01:08;;;;;;;1999.90;999.90;;;9.00;99.90;;;;;;4996968;28;20054;-95
2021/05/04 03:03:36;;;;;;;1999.90;999.90;;;9.10;99.90;;;;;;4997010;28;20065;-96
2021/05/04 03:06:05;;;;;;;1999.90;999.90;;;9.00;99.90;;;;;;4998187;28;20461;-94
2021/05/04 03:08:33;;;;;;;1999.90;999.90;;;9.00;99.90;;;;;;4995925;28;20093;-95
2021/05/04 03:11:04;;;;;;;1999.90;999.90;;;8.90;99.90;;;;;;4995744;28;20085;-96
2021/05/04 03:13:33;;;;;;;1999.90;999.90;;;8.90;99.90;;;;;;5001941;28;20137;-96
2021/05/04 03:16:01;;;;;;;1999.90;999.90;;;8.90;99.90;;;;;;4998106;28;20050;-96
2021/05/04 03:18:31;;;;;;;1999.90;999.90;;;8.90;99.90;;;;;;4996740;28;20384;-96
2021/05/04 03:20:59;;;;;;;1999.90;999.90;;;8.90;99.90;;;;;;4996873;28;20057;-95
2021/05/04 03:23:27;;;;;;;1999.90;999.90;;;8.90;99.90;;;;;;5003347;28;20067;-94
2021/05/04 03:25:54;;;;;;;1999.90;999.90;;;8.90;99.90;;;;;;5009784;28;20054;-94
2021/05/04 03:28:21;;;;;;;1999.90;999.90;;;9.00;99.90;;;;;;5010799;28;20046;-94
2021/05/04 03:30:48;;;;;;;1999.90;999.90;;;9.00;99.90;;;;;;5011121;28;20058;-96
2021/05/04 03:33:19;;;;;;;1999.90;999.90;;;9.00;99.90;;;;;;5012848;28;20054;-95
2021/05/04 03:35:46;;;;;;;1999.90;999.90;;;9.00;99.90;;;;;;5012497;28;20404;-94
2021/05/04 03:38:14;;;;;;;1999.90;999.90;;;9.00;99.90;;;;;;5014528;28;20137;-94
2021/05/04 03:40:42;;;;;;;1999.90;999.90;;;9.00;99.90;;;;;;5024402;28;20061;-96
2021/05/04 03:43:09;;;;;;;1999.90;999.90;;;9.00;99.90;;;;;;5024222;28;20046;-95
2021/05/04 03:45:36;;;;;;;1999.90;999.90;;;9.00;99.90;;;;;;5023229;28;20038;-95
2021/05/04 03:48:05;;;;;;;1999.90;999.90;;;9.00;99.90;;;;;;5024741;28;20065;-94
2021/05/04 03:50:32;;;;;;;1999.90;999.90;;;9.10;99.90;;;;;;5024863;28;20030;-94
2021/05/04 03:53:00;;;;;;;1999.90;999.90;;;9.10;99.90;;;;;;5024802;28;20049;-95
2021/05/04 03:55:28;;;;;;;1999.90;999.90;;;9.10;99.90;;;;;;5022474;28;20047;-95
2021/05/04 03:57:56;;;;;;;1999.90;999.90;;;9.10;99.90;;;;;;5009634;28;20046;-94
2021/05/04 04:00:24;;;;;;;1999.90;999.90;;;9.10;99.90;;;;;;5009889;28;20085;-94
2021/05/04 04:02:52;;;;;;;1999.90;999.90;;;9.10;99.90;;;;;;5009955;28;20054;-95
2021/05/04 04:05:20;;;;;;;1999.90;999.90;;;9.20;99.90;;;;;;5011426;28;20053;-95
2021/05/04 04:07:47;;;;;;;1999.90;999.90;;;9.10;99.90;;;;;;5020894;28;20046;-95
2021/05/04 04:10:14;;;;;;;1999.90;999.90;;;9.20;99.90;;;;;;5024574;28;20030;-95
2021/05/04 04:12:42;;;;;;;1999.90;999.90;;;9.10;99.90;;;;;;5023831;28;20050;-95
2021/05/04 04:15:12;;;;;;;1999.90;999.90;;;9.20;99.90;;;;;;5023728;28;20041;-96
2021/05/04 04:17:39;;;;;;;1999.90;999.90;;;9.20;99.90;;;;;;5023466;28;20038;-95
2021/05/04 04:20:08;;;;;;;1999.90;999.90;;;9.20;99.90;;;;;;5022629;28;20042;-95
2021/05/04 04:22:39;;;;;;;1999.90;999.90;;;9.20;99.90;;;;;;5003825;28;20081;-95
2021/05/04 04:25:07;;;;;;;1999.90;999.90;;;9.10;99.90;;;;;;5002386;28;20058;-94
2021/05/04 04:27:35;;;;;;;1999.90;999.90;;;9.20;99.90;;;;;;5001773;28;20096;-95
2021/05/04 04:30:03;;;;;;;1999.90;999.90;;;9.10;99.90;;;;;;5001996;28;20050;-95
2021/05/04 04:32:31;;;;;;;1999.90;999.90;;;9.20;99.90;;;;;;5001674;28;20057;-95
2021/05/04 04:34:59;;;;;;;1999.90;999.90;;;9.20;99.90;;;;;;4998293;28;20061;-95
2021/05/04 04:37:27;;;;;;;1999.90;999.90;;;9.10;99.90;;;;;;4998267;28;20050;-95
2021/05/04 04:39:54;;;;;;;1999.90;999.90;;;9.10;99.90;;;;;;4998709;28;20054;-95
2021/05/04 04:42:21;;;;;;;1999.90;999.90;;;9.10;99.90;;;;;;4997982;28;20112;-94
2021/05/04 04:44:48;;;;;;;1999.90;999.90;;;9.10;99.90;;;;;;4997967;28;20061;-95
2021/05/04 04:47:18;;;;;;;1999.90;999.90;;;9.10;99.90;;;;;;4998741;28;20469;-95
2021/05/04 04:49:47;;;;;;;1999.90;999.90;;;9.00;99.90;;;;;;4998461;28;20073;-96
2021/05/04 04:52:15;;;;;;;1999.90;999.90;;;9.00;99.90;;;;;;4997663;28;20056;-96
2021/05/04 04:54:42;;;;;;;1999.90;999.90;;;9.10;99.90;;;;;;4998429;28;20054;-95
2021/05/04 04:57:10;;;;;;;1999.90;999.90;;;9.10;99.90;;;;;;4998355;28;20101;-95
2021/05/04 04:59:38;;;;;;;1999.90;999.90;;;9.10;99.90;;;;;;4997535;28;20054;-94
2021/05/04 05:02:05;;;;;;;1999.90;999.90;;;9.00;99.90;;;;;;4998049;28;20056;-95
2021/05/04 05:04:35;;;;;;;1999.90;999.90;;;9.10;99.90;;;;;;4998441;28;20050;-95
2021/05/04 05:07:06;;;;;;;1999.90;999.90;;;9.00;99.90;;;;;;4998065;28;20063;-96
2021/05/04 05:09:35;;;;;;;1999.90;999.90;;;9.10;99.90;;;;;;4997900;28;20064;-95
2021/05/04 05:12:05;;;;;;;1999.90;999.90;;;9.10;99.90;;;;;;4997678;28;20058;-96
2021/05/04 05:14:34;;;;;;;1999.90;999.90;;;9.10;99.90;;;;;;4998332;28;20071;-96
2021/05/04 05:17:01;;;;;;;1999.90;999.90;;;9.10;99.90;;;;;;4998277;28;20046;-94
2021/05/04 05:19:30;;;;;;;1999.90;999.90;;;9.20;99.90;;;;;;4998405;28;20133;-95
2021/05/04 05:21:58;;;;;;;1999.90;999.90;;;9.20;99.90;;;;;;4997780;28;20124;-95
2021/05/04 05:24:27;;;;;;;1999.90;999.90;;;9.20;99.90;;;;;;4997651;28;20050;-96
2021/05/04 05:26:54;;;;;;;1999.90;999.90;;;9.20;99.90;;;;;;4997789;28;20061;-96
2021/05/04 05:29:21;;;;;;;1999.90;999.90;;;9.30;99.90;;;;;;4997311;28;20058;-95
2021/05/04 05:31:49;;;;;;;1999.90;999.90;;;9.30;99.90;;;;;;4999074;28;20078;-95
2021/05/04 05:34:16;;;;;;;1999.90;999.90;;;9.30;99.90;;;;;;5002896;28;20054;-95
2021/05/04 05:36:43;;;;;;;1999.90;999.90;;;9.40;99.90;;;;;;5008236;28;20062;-95
2021/05/04 05:39:13;;;;;;;1999.90;999.90;;;9.40;99.90;;;;;;5009884;28;20061;-94
2021/05/04 05:41:41;;;;;;;1999.90;999.90;;;9.50;99.90;;;;;;5008610;28;20125;-94
2021/05/04 05:44:09;;;;;;;1999.90;999.90;;;9.50;99.90;;;;;;5004319;28;20081;-95
2021/05/04 05:46:36;;;;;;;1999.90;999.90;;;9.50;99.90;;;;;;5006807;28;20113;-95
2021/05/04 05:49:04;;;;;;;1999.90;999.90;;;9.60;99.90;;;;;;5018843;28;20098;-95
2021/05/04 05:51:31;;;;;;;1999.90;999.90;;;9.60;99.90;;;;;;5019576;28;20054;-94
2021/05/04 05:53:58;;;;;;;1999.90;999.90;;;9.70;99.90;;;;;;5019825;28;20030;-94
2021/05/04 05:56:26;;;;;;;1999.90;999.90;;;9.70;99.90;;;;;;5019252;28;20082;-95
2021/05/04 05:58:54;;;;;;;1999.90;999.90;;;9.80;99.90;;;;;;5018530;28;20057;-96
2021/05/04 06:01:21;;;;;;;1999.90;999.90;;;9.80;99.90;;;;;;5019498;28;20169;-95
2021/05/04 06:03:48;;;;;;;1999.90;999.90;;;9.90;99.90;;;;;;5016643;28;20097;-94
2021/05/04 06:06:17;;;;;;;1999.90;999.90;;;9.90;99.90;;;;;;5003572;28;20055;-95
2021/05/04 06:08:44;;;;;;;1999.90;999.90;;;10.00;99.90;;;;;;5003481;28;20077;-95
2021/05/04 06:11:12;;;;;;;1999.90;999.90;;;10.00;99.90;;;;;;5002439;28;20055;-94
2021/05/04 06:13:39;;;;;;;1999.90;999.90;;;10.00;99.90;;;;;;5003837;28;20050;-94
2021/05/04 06:16:08;;;;;;;1999.90;999.90;;;10.00;99.90;;;;;;5013336;28;20064;-94
2021/05/04 06:18:35;;;;;;;1999.90;999.90;;;10.10;99.90;;;;;;5018652;28;20038;-94
2021/05/04 06:21:02;;;;;;;1999.90;999.90;;;10.10;99.90;;;;;;5019297;28;20094;-94
2021/05/04 06:23:30;;;;;;;1999.90;999.90;;;10.10;99.90;;;;;;5019055;28;20050;-94
2021/05/04 06:25:57;;;;;;;1999.90;999.90;;;10.10;99.90;;;;;;5018889;28;20170;-94
2021/05/04 06:28:24;;;;;;;1999.90;999.90;;;10.10;99.90;;;;;;5017279;28;20050;-95
2021/05/04 06:30:52;;;;;;;1999.90;999.90;;;10.20;99.90;;;;;;4998209;28;20054;-95
2021/05/04 06:33:21;;;;;;;1999.90;999.90;;;10.20;99.90;;;;;;4996576;28;20051;-95
2021/05/04 06:35:49;;;;;;;1999.90;999.90;;;10.10;99.90;;;;;;4996783;28;20057;-94
2021/05/04 06:38:18;;;;;;;1999.90;999.90;;;10.10;99.90;;;;;;4996687;28;20372;-95
2021/05/04 06:40:48;;;;;;;1999.90;999.90;;;10.10;99.90;;;;;;4995824;28;20452;-94
2021/05/04 06:43:18;;;;;;;1999.90;999.90;;;10.20;99.90;;;;;;4983892;28;20058;-95
2021/05/04 06:45:45;;;;;;;1999.90;999.90;;;10.20;99.90;;;;;;4976975;28;20134;-93
2021/05/04 06:48:13;;;;;;;1999.90;999.90;;;10.20;99.90;;;;;;4977084;28;20105;-94
2021/05/04 06:50:42;;;;;;;1999.90;999.90;;;10.20;99.90;;;;;;4976866;28;20058;-94
2021/05/04 06:53:09;;;;;;;1999.90;999.90;;;10.20;99.90;;;;;;4977258;28;20047;-94
2021/05/04 06:55:46;;;;;;;1999.90;999.90;;;10.10;99.90;;;;;;4976805;28;20047;-94
2021/05/04 06:58:48;;;;;;;1999.90;999.90;;;10.20;99.90;;;;;;4987804;28;20051;-96
2021/05/04 07:01:34;;;;;;;1999.90;999.90;;;10.10;99.90;;;;;;4987692;28;20082;-95
2021/05/04 07:04:07;;;;;;;1999.90;999.90;;;10.00;99.90;;;;;;4987576;28;20051;-96
2021/05/04 07:06:54;;;;;;;1999.90;999.90;;;9.90;99.90;;;;;;4984452;28;20053;-96
2021/05/04 07:09:25;;;;;;;1999.90;999.90;;;10.00;99.90;;;;;;4984670;28;20051;-96
2021/05/04 07:12:06;;;;;;;1999.90;999.90;;;10.00;99.90;;;;;;4985511;28;20054;-96
2021/05/04 07:14:54;;;;;;;1999.90;999.90;;;10.00;99.90;;;;;;4987942;28;20081;-96
2021/05/04 07:17:35;;;;;;;1999.90;999.90;;;10.00;99.90;;;;;;4985656;28;20051;-96
2021/05/04 07:20:27;;;;;;;1999.90;999.90;;;10.00;99.90;;;;;;4988747;28;20106;-96
2021/05/04 07:23:15;;;;;;;1999.90;999.90;;;10.10;99.90;;;;;;4984029;28;20478;-96
2021/05/04 07:35:54;;;;;;;1999.90;999.90;;;10.50;99.90;;;;;;4973224;28;20058;-94
2021/05/04 07:38:39;;;;;;;;;;;;;;;;;;;;;
2021/05/04 07:41:26;;;;;;;1999.90;999.90;;;10.30;99.90;;;;;;4977002;28;20458;-94
2021/05/04 07:44:08;;;;;;;1999.90;999.90;;;10.20;99.90;;;;;;4975699;28;20058;-94
2021/05/04 07:47:14;;;;;;;;;;;;;;;;;;;;;
2021/05/04 07:51:08;;;;;;;;;;;;;;;;;;;;;
2021/05/04 07:54:18;;;;;;;1999.90;999.90;;;10.10;99.90;;;;;;4975297;28;20054;-94
2021/05/04 07:56:48;;;;;;;1999.90;999.90;;;9.90;99.90;;;;;;4977053;28;20054;-94
2021/05/04 07:59:20;;;;;;;1999.90;999.90;;;9.80;99.90;;;;;;4975850;28;20490;-95
2021/05/04 08:01:51;;;;;;;1999.90;999.90;;;9.80;99.90;;;;;;4976279;28;20051;-96
2021/05/04 10:40:30;;;;;;;1999.90;999.90;;;9.00;99.90;;;;;;707767;23;20331;-93
2021/05/04 10:44:02;;;;;;;1999.90;999.90;;;9.00;99.90;;;;;;4902518;29;20379;-95
2021/05/04 10:46:39;;;;;;;1999.90;999.90;;;9.00;99.90;;;;;;4887563;29;20057;-96
2021/05/04 10:53:48;;;;;;;1999.90;999.90;;;8.80;99.90;;;;;;4799960;30;20074;-95
2021/05/04 11:01:16;;;;;;;1999.90;999.90;;;8.70;99.90;;;;;;4841490;29;20045;-95
2021/05/04 11:04:13;;;;;;;1999.90;999.90;;;8.70;99.90;;;;;;4910076;29;20040;-96
2021/05/04 11:06:50;;;;;;;1999.90;999.90;;;8.80;99.90;;;;;;4921805;29;20044;-96
2021/05/04 11:09:23;;;;;;;1999.90;999.90;;;8.90;99.90;;;;;;4921580;29;20058;-94
2021/05/04 11:11:57;;;;;;;1999.90;999.90;;;8.90;99.90;;;;;;4919654;29;20120;-96
2021/05/04 11:14:47;;;;;;;1999.90;999.90;;;8.90;99.90;;;;;;4915143;29;20052;-95
2021/05/04 11:17:42;;;;;;;1999.90;999.90;;;8.90;99.90;;;;;;4918482;29;20053;-96
2021/05/04 11:20:32;;;;;;;1999.90;999.90;;;8.90;99.90;;;;;;4919433;29;20089;-96
2021/05/04 11:23:01;;;;;;;1999.90;999.90;;;8.90;99.90;;;;;;4918633;29;20047;-94
2021/05/04 11:25:40;;;;;;;1999.90;999.90;;;9.00;99.90;;;;;;4919622;29;20056;-95
2021/05/04 12:42:01;;;;;;;;;;;8.80;99.90;;;;;;4902999;29;20229;-94
2021/05/04 12:44:33;;;;;;;1999.90;999.90;;;8.90;99.90;;;;;;4958119;29;20361;-94
2021/05/04 12:47:09;;;;;;;1999.90;999.90;;;9.00;99.90;;;;;;4957747;29;20075;-95
2021/05/04 12:49:44;;;;;;;1999.90;999.90;;;9.10;99.90;;;;;;4957232;29;20143;-94
2021/05/04 12:52:49;;;;;;;1999.90;999.90;;;9.10;99.90;;;;;;4957732;29;20051;-95
2021/05/04 12:55:26;;;;;;;1999.90;999.90;;;9.20;99.90;;;;;;4957089;28;20055;-94
2021/05/04 12:58:12;;;;;;;1999.90;999.90;;;9.30;99.90;;;;;;4957257;29;20047;-93
2021/05/04 13:03:56;;;;;;;1999.90;999.90;;;9.30;99.90;;;;;;4950483;29;20051;-94
2021/05/04 13:09:26;;;;;;;1999.90;999.90;;;9.50;99.90;;;;;;5152923;23;20117;-94
2021/05/04 13:12:41;;;;;;;1999.90;999.90;;;9.60;99.90;;;;;;4982124;28;20062;-94
2021/05/04 13:18:35;;;;;;;1999.90;999.90;;;9.60;99.90;;;;;;4945532;28;20051;-93
2021/05/04 13:32:50;;;;;;;1999.90;999.90;;;9.50;99.90;;;;;;5236943;23;20149;-96
2021/05/04 13:35:24;;;;;;;1999.90;999.90;;;9.40;99.90;;;;;;4990391;28;20059;-94
2021/05/04 13:38:01;;;;;;;1999.90;999.90;;;9.20;99.90;;;;;;4978068;28;20087;-94
2021/05/04 17:33:27;;;;;;;1999.90;999.90;;;9.50;99.90;;;;;;1644030;23;20335;-94
2021/05/04 17:35:58;;;;;;;1999.90;999.90;;;9.50;99.90;;;;;;4982139;28;20051;-92
2021/05/04 17:38:35;;;;;;;1999.90;999.90;;;9.40;99.90;;;;;;4988727;28;20049;-94
2021/05/04 17:41:26;;;;;;;1999.90;999.90;;;9.40;99.90;;;;;;4989213;28;20065;-94
